Time;durP1;ratioP1;P1;durP2;ratioP2;P2;SDS_P1;SDS_P2;PMS_P1;PMS_P2;Temp;Humidity;BMP_temperature;BMP_pressure;BME280_temperature;BME280_humidity;BME280_pressure;Samples;Min_cycle;Max_cycle;Signal;HPM_P1;HPM_P2
2023/11/25 00:00:09;;;;;;;0.77;0.20;;;6.40;99.90;;;;;;3948179;30;20197;-91
2023/11/25 00:02:15;;;;;;;10.98;1.27;;;6.40;99.90;;;;;;3948124;30;20191;-91
2023/11/25 00:04:16;;;;;;;1.53;0.60;;;6.30;99.90;;;;;;3933521;30;20194;-91
2023/11/25 00:06:20;;;;;;;5.90;0.43;;;6.30;99.90;;;;;;3933415;30;20194;-91
2023/11/25 00:08:21;;;;;;;4.30;1.40;;;6.30;99.90;;;;;;3933314;30;20680;-92
2023/11/25 00:10:22;;;;;;;4.90;0.50;;;6.30;99.90;;;;;;3933243;30;20263;-92
2023/11/25 00:12:23;;;;;;;4.70;0.40;;;6.40;99.90;;;;;;3948375;30;20536;-91
2023/11/25 00:14:24;;;;;;;7.88;1.73;;;6.50;99.90;;;;;;3933380;30;20234;-90
2023/11/25 00:16:25;;;;;;;8.02;1.95;;;6.50;99.90;;;;;;3933264;30;20209;-90
2023/11/25 00:18:25;;;;;;;8.63;0.70;;;7.30;99.90;;;;;;3933445;30;20182;-91
2023/11/25 00:20:26;;;;;;;1.40;0.40;;;7.10;99.90;;;;;;3933305;30;20175;-91
2023/11/25 00:22:27;;;;;;;1.17;0.17;;;6.70;99.90;;;;;;3933372;30;20190;-91
2023/11/25 00:24:28;;;;;;;5.43;0.10;;;6.30;99.90;;;;;;3947820;30;20632;-89
2023/11/25 00:26:28;;;;;;;2.70;0.17;;;6.00;99.90;;;;;;3933195;30;20181;-90
2023/11/25 00:28:34;;;;;;;3.20;0.37;;;6.30;99.90;;;;;;3933454;30;20180;-90
2023/11/25 00:30:35;;;;;;;4.87;0.53;;;6.50;99.90;;;;;;3933080;30;20656;-90
2023/11/25 00:32:39;;;;;;;1.90;1.17;;;6.40;99.90;;;;;;3932944;30;20183;-91
2023/11/25 00:34:40;;;;;;;0.10;0.10;;;6.10;99.90;;;;;;3932681;30;20275;-91
2023/11/25 00:36:40;;;;;;;3.80;0.20;;;5.90;99.90;;;;;;3947537;30;20629;-91
2023/11/25 00:38:41;;;;;;;5.47;0.87;;;5.70;99.90;;;;;;3932750;30;20752;-91
2023/11/25 00:40:42;;;;;;;0.20;0.10;;;5.60;99.90;;;;;;3932787;30;20189;-91
2023/11/25 00:42:43;;;;;;;0.30;0.10;;;5.60;99.90;;;;;;3932864;30;20194;-91
2023/11/25 00:44:43;;;;;;;3.70;0.07;;;5.50;99.90;;;;;;3947396;30;20192;-91
2023/11/25 00:46:44;;;;;;;4.17;0.20;;;5.50;99.90;;;;;;3932873;30;20196;-90
2023/11/25 00:48:46;;;;;;;5.70;0.20;;;5.60;99.90;;;;;;3947235;30;20198;-92
2023/11/25 00:50:49;;;;;;;6.30;1.40;;;5.70;99.90;;;;;;3932790;30;20190;-91
2023/11/25 00:52:49;;;;;;;0.17;0.17;;;5.80;99.90;;;;;;3932633;30;20182;-90
2023/11/25 00:54:50;;;;;;;0.73;0.33;;;6.30;99.90;;;;;;3947454;30;20249;-90
2023/11/25 00:56:51;;;;;;;2.03;0.90;;;6.80;99.90;;;;;;3932767;30;20191;-90
2023/11/25 00:58:52;;;;;;;1.37;0.40;;;7.30;99.90;;;;;;3932712;30;20237;-91
2023/11/25 01:00:52;;;;;;;12.17;0.50;;;7.10;99.90;;;;;;3933060;30;20313;-92
2023/11/25 01:02:56;;;;;;;1.50;0.53;;;6.70;99.90;;;;;;3932927;30;20248;-90
2023/11/25 01:04:56;;;;;;;4.37;0.37;;;6.40;99.90;;;;;;3947659;30;20169;-91
2023/11/25 01:06:57;;;;;;;4.80;0.53;;;6.20;99.90;;;;;;3947578;30;20357;-90
2023/11/25 01:08:58;;;;;;;0.77;0.50;;;6.20;99.90;;;;;;3932644;30;20222;-91
2023/11/25 01:10:59;;;;;;;0.83;0.40;;;6.00;99.90;;;;;;3947316;30;20193;-91
2023/11/25 01:13:00;;;;;;;0.63;0.27;;;5.80;99.90;;;;;;3932747;30;20671;-92
2023/11/25 01:15:02;;;;;;;6.33;0.90;;;5.90;99.90;;;;;;3947153;30;20259;-91
2023/11/25 01:17:03;;;;;;;3.47;0.43;;;5.80;99.90;;;;;;3947170;30;20229;-90
2023/11/25 01:19:04;;;;;;;4.43;0.30;;;5.70;99.90;;;;;;3931799;30;20686;-90
2023/11/25 01:21:05;;;;;;;1.40;0.47;;;5.70;99.90;;;;;;3932353;30;20178;-91
2023/11/25 01:23:06;;;;;;;1.50;0.50;;;5.70;99.90;;;;;;3947111;30;20217;-91
2023/11/25 01:25:07;;;;;;;2.83;0.40;;;5.70;99.90;;;;;;3932288;30;20193;-90
2023/11/25 01:27:08;;;;;;;1.97;0.20;;;5.70;99.90;;;;;;3932641;30;20197;-91
2023/11/25 01:29:09;;;;;;;2.57;0.23;;;5.70;99.90;;;;;;3947093;30;20201;-89
2023/11/25 01:31:11;;;;;;;0.37;0.10;;;5.70;99.90;;;;;;3932478;30;20278;-92
2023/11/25 01:33:12;;;;;;;2.17;0.37;;;5.70;99.90;;;;;;3932303;30;20185;-91
2023/11/25 01:35:13;;;;;;;0.53;0.13;;;5.70;99.90;;;;;;3932264;30;20218;-90
2023/11/25 01:37:15;;;;;;;3.77;0.47;;;5.70;99.90;;;;;;3932476;30;20248;-91
2023/11/25 01:39:16;;;;;;;2.60;0.93;;;5.70;99.90;;;;;;3947004;30;20279;-91
2023/11/25 01:41:17;;;;;;;1.43;0.10;;;5.70;99.90;;;;;;3947084;30;20185;-90
2023/11/25 01:43:23;;;;;;;1.03;0.37;;;5.60;99.90;;;;;;3932531;30;20178;-92
2023/11/25 01:45:26;;;;;;;1.70;0.40;;;5.70;99.90;;;;;;3932327;30;20178;-91
2023/11/25 01:47:28;;;;;;;3.93;0.87;;;5.60;99.90;;;;;;3932276;30;20357;-90
2023/11/25 01:49:29;;;;;;;5.10;0.57;;;5.40;99.90;;;;;;3932339;30;20206;-91
2023/11/25 01:51:32;;;;;;;1.40;0.30;;;5.50;99.90;;;;;;3932390;30;20179;-91
2023/11/25 01:53:33;;;;;;;0.27;0.10;;;5.70;99.90;;;;;;3932276;30;20190;-91
2023/11/25 01:55:34;;;;;;;3.30;0.43;;;5.80;99.90;;;;;;3932264;30;20194;-89
2023/11/25 01:57:36;;;;;;;1.27;0.20;;;5.80;99.90;;;;;;3931916;30;20251;-90
2023/11/25 01:59:37;;;;;;;2.80;0.40;;;5.80;99.90;;;;;;3946975;30;20202;-91
2023/11/25 02:01:37;;;;;;;0.47;0.40;;;5.80;99.90;;;;;;3932501;30;20239;-90
2023/11/25 02:03:39;;;;;;;1.43;0.80;;;5.70;99.90;;;;;;3932274;30;20598;-91
2023/11/25 02:05:42;;;;;;;0.33;0.10;;;5.70;99.90;;;;;;3932346;30;20184;-92
2023/11/25 02:07:43;;;;;;;3.83;0.20;;;5.80;99.90;;;;;;3946896;30;20182;-92
2023/11/25 02:09:44;;;;;;;6.10;0.50;;;5.80;99.90;;;;;;3946695;30;20262;-90
2023/11/25 02:12:01;;;;;;;12.73;0.90;;;6.00;99.90;;;;;;3931887;30;20283;-91
2023/11/25 02:14:02;;;;;;;5.53;1.03;;;6.00;99.90;;;;;;3932204;30;20241;-90
2023/11/25 02:16:04;;;;;;;0.90;0.30;;;5.90;99.90;;;;;;3932042;30;20191;-91
2023/11/25 02:18:04;;;;;;;1.00;0.33;;;5.90;99.90;;;;;;3932005;30;20248;-91
2023/11/25 02:20:08;;;;;;;8.93;1.07;;;5.80;99.90;;;;;;3931919;30;20687;-91
2023/11/25 02:22:10;;;;;;;7.77;0.70;;;5.70;99.90;;;;;;3932240;30;20186;-92
2023/11/25 02:24:12;;;;;;;1.48;0.28;;;5.60;99.90;;;;;;3932093;30;20183;-91
2023/11/25 02:26:13;;;;;;;9.93;0.50;;;5.60;99.90;;;;;;3932023;30;20186;-92
2023/11/25 02:28:15;;;;;;;8.90;0.63;;;5.50;99.90;;;;;;3931944;30;20190;-91
2023/11/25 02:30:17;;;;;;;2.40;0.30;;;5.50;99.90;;;;;;3933100;30;20398;-92
2023/11/25 02:32:17;;;;;;;1.77;0.30;;;5.60;99.90;;;;;;3934689;30;20189;-91
2023/11/25 02:34:20;;;;;;;2.23;0.50;;;5.70;99.90;;;;;;3949310;30;20249;-91
2023/11/25 02:36:23;;;;;;;1.67;0.50;;;5.60;99.90;;;;;;3934994;30;20221;-91
2023/11/25 02:38:24;;;;;;;0.00;0.00;;;5.90;99.90;;;;;;3934751;30;20228;-91
2023/11/25 02:40:25;;;;;;;9.27;0.73;;;5.80;99.90;;;;;;3934569;30;20186;-91
2023/11/25 02:42:26;;;;;;;5.17;0.20;;;5.80;99.90;;;;;;3934626;30;20253;-91
2023/11/25 02:44:27;;;;;;;2.53;0.47;;;6.00;99.90;;;;;;3949360;30;20189;-90
2023/11/25 02:46:27;;;;;;;10.07;0.70;;;6.20;99.90;;;;;;3949384;30;20177;-91
2023/11/25 02:48:28;;;;;;;3.23;0.60;;;6.30;99.90;;;;;;3934380;30;20552;-90
2023/11/25 02:50:29;;;;;;;5.10;0.87;;;6.00;99.90;;;;;;3949398;30;20553;-92
2023/11/25 02:52:30;;;;;;;1.77;0.50;;;6.00;99.90;;;;;;3934578;30;20182;-90
2023/11/25 02:54:31;;;;;;;5.73;0.83;;;5.80;99.90;;;;;;3949110;30;20229;-91
2023/11/25 02:56:32;;;;;;;4.63;0.20;;;5.70;99.90;;;;;;3934216;30;20205;-91
2023/11/25 02:58:33;;;;;;;2.77;0.63;;;5.80;99.90;;;;;;3934294;30;20265;-91
2023/11/25 03:00:39;;;;;;;7.80;0.63;;;5.70;99.90;;;;;;3948986;30;20247;-91
2023/11/25 03:02:40;;;;;;;15.83;0.60;;;5.70;99.90;;;;;;3934481;30;20193;-90
2023/11/25 03:04:45;;;;;;;1.93;0.20;;;5.90;99.90;;;;;;3934220;30;20752;-90
2023/11/25 03:06:48;;;;;;;1.17;0.33;;;5.70;99.90;;;;;;3934141;30;20186;-91
2023/11/25 03:08:48;;;;;;;6.23;0.70;;;5.70;99.90;;;;;;3934153;30;20210;-91
2023/11/25 03:10:50;;;;;;;1.63;0.60;;;6.00;99.90;;;;;;3934405;30;20178;-91
2023/11/25 03:12:53;;;;;;;0.70;0.20;;;6.00;99.90;;;;;;3934285;30;20231;-91
2023/11/25 03:14:53;;;;;;;5.07;1.00;;;6.10;99.90;;;;;;3934166;30;20317;-91
2023/11/25 03:16:55;;;;;;;0.37;0.37;;;6.00;99.90;;;;;;3934151;30;20591;-91
2023/11/25 03:18:56;;;;;;;0.37;0.23;;;5.80;99.90;;;;;;3934143;30;20215;-91
2023/11/25 03:20:57;;;;;;;3.83;0.67;;;5.80;99.90;;;;;;3948757;30;20181;-91
2023/11/25 03:22:58;;;;;;;3.07;0.60;;;5.80;99.90;;;;;;3934246;30;20190;-90
2023/11/25 03:24:59;;;;;;;17.07;0.97;;;5.90;99.90;;;;;;3934187;30;20242;-91
2023/11/25 03:26:59;;;;;;;1.17;0.13;;;5.90;99.90;;;;;;3948865;30;20242;-90
2023/11/25 03:29:00;;;;;;;7.90;1.20;;;6.00;99.90;;;;;;3933975;30;20202;-92
2023/11/25 03:31:04;;;;;;;3.03;1.03;;;6.20;99.90;;;;;;3948663;30;20178;-91
2023/11/25 03:33:05;;;;;;;5.20;0.90;;;6.10;99.90;;;;;;3933917;30;20193;-91
2023/11/25 03:35:06;;;;;;;2.13;1.07;;;5.90;99.90;;;;;;3933904;30;20713;-91
2023/11/25 03:37:08;;;;;;;0.70;0.13;;;6.00;99.90;;;;;;3933868;30;20183;-90
2023/11/25 03:39:09;;;;;;;2.47;0.50;;;6.10;99.90;;;;;;3933728;30;20202;-91
2023/11/25 03:41:10;;;;;;;5.90;0.67;;;5.90;99.90;;;;;;3933680;30;20220;-90
2023/11/25 03:43:11;;;;;;;13.10;1.30;;;5.80;99.90;;;;;;3933352;30;20183;-90
2023/11/25 03:45:15;;;;;;;6.87;0.30;;;5.70;99.90;;;;;;3933663;30;20297;-90
2023/11/25 03:47:18;;;;;;;2.70;0.50;;;5.70;99.90;;;;;;3933725;30;20265;-92
2023/11/25 03:49:20;;;;;;;7.00;0.70;;;5.60;99.90;;;;;;3933683;30;20577;-90
2023/11/25 03:51:21;;;;;;;1.10;0.70;;;5.50;99.90;;;;;;3933705;30;20194;-91
2023/11/25 03:53:22;;;;;;;3.37;0.87;;;5.30;99.90;;;;;;3933511;30;20203;-92
2023/11/25 03:55:23;;;;;;;3.47;0.80;;;5.30;99.90;;;;;;3933563;30;20225;-90
2023/11/25 03:57:24;;;;;;;1.77;0.40;;;5.40;99.90;;;;;;3933627;30;20691;-91
2023/11/25 03:59:25;;;;;;;3.20;0.70;;;5.40;99.90;;;;;;3948169;30;20202;-91
2023/11/25 04:01:26;;;;;;;0.57;0.33;;;5.40;99.90;;;;;;3933694;30;20213;-91
2023/11/25 04:03:26;;;;;;;5.10;1.83;;;5.30;99.90;;;;;;3948301;30;20190;-90
2023/11/25 04:05:27;;;;;;;1.40;0.57;;;5.30;99.90;;;;;;3933646;30;20305;-91
2023/11/25 04:07:30;;;;;;;0.20;0.10;;;5.40;99.90;;;;;;3948232;30;20182;-90
2023/11/25 04:09:31;;;;;;;7.43;0.40;;;5.50;99.90;;;;;;3933425;30;20240;-90
2023/11/25 04:11:32;;;;;;;5.30;0.60;;;5.50;99.90;;;;;;3933456;30;20185;-91
2023/11/25 04:13:33;;;;;;;0.97;0.20;;;5.70;99.90;;;;;;3947964;30;20636;-91
2023/11/25 04:15:34;;;;;;;2.80;0.77;;;5.80;99.90;;;;;;3933581;30;20643;-91
2023/11/25 04:17:35;;;;;;;6.50;0.73;;;6.20;99.90;;;;;;3933505;30;20636;-91
2023/11/25 04:19:36;;;;;;;0.43;0.30;;;6.40;99.90;;;;;;3933443;30;20204;-91
2023/11/25 04:21:45;;;;;;;2.00;0.60;;;6.10;99.90;;;;;;3933601;30;20248;-92
2023/11/25 04:23:47;;;;;;;10.87;1.13;;;6.00;99.90;;;;;;3933607;30;20182;-90
2023/11/25 04:25:48;;;;;;;4.57;1.10;;;5.80;99.90;;;;;;3947977;30;20185;-91
2023/11/25 04:27:49;;;;;;;5.33;1.73;;;5.60;99.90;;;;;;3933205;30;20175;-91
2023/11/25 04:29:52;;;;;;;2.93;0.63;;;5.50;99.90;;;;;;3932979;30;20214;-91
2023/11/25 04:31:53;;;;;;;0.03;0.03;;;5.60;99.90;;;;;;3933272;30;20183;-90
2023/11/25 04:33:54;;;;;;;2.53;0.40;;;5.60;99.90;;;;;;3932966;30;20214;-91
2023/11/25 04:35:55;;;;;;;6.60;0.10;;;5.50;99.90;;;;;;3947724;30;20182;-90
2023/11/25 04:37:56;;;;;;;1.80;0.97;;;5.40;99.90;;;;;;3933029;30;20654;-91
2023/11/25 04:39:58;;;;;;;9.23;0.50;;;5.30;99.90;;;;;;3947702;30;20213;-91
2023/11/25 04:41:58;;;;;;;5.30;1.30;;;5.20;99.90;;;;;;3933107;30;20182;-91
2023/11/25 04:43:59;;;;;;;1.73;0.63;;;5.20;99.90;;;;;;3932948;30;20262;-92
2023/11/25 04:46:03;;;;;;;3.30;0.20;;;5.10;99.90;;;;;;3932830;30;20194;-91
2023/11/25 04:48:04;;;;;;;4.80;1.03;;;5.10;99.90;;;;;;3932923;30;20205;-90
2023/11/25 04:50:05;;;;;;;1.03;0.67;;;5.10;99.90;;;;;;3932584;30;20292;-91
2023/11/25 04:52:06;;;;;;;8.07;0.60;;;5.10;99.90;;;;;;3947372;30;20174;-91
2023/11/25 04:54:07;;;;;;;5.00;1.13;;;5.10;99.90;;;;;;3932646;30;20295;-91
2023/11/25 04:56:08;;;;;;;6.53;2.83;;;5.00;99.90;;;;;;3932796;30;20240;-91
2023/11/25 04:58:09;;;;;;;20.07;4.47;;;4.90;99.90;;;;;;3932674;30;20213;-90
2023/11/25 05:00:11;;;;;;;9.90;4.20;;;4.80;99.90;;;;;;3947229;30;20193;-91
2023/11/25 05:02:13;;;;;;;3.93;1.67;;;4.80;99.90;;;;;;3932598;30;20183;-90
2023/11/25 05:04:14;;;;;;;16.53;4.30;;;4.70;99.90;;;;;;3932692;30;20189;-91
2023/11/25 05:06:15;;;;;;;11.03;3.77;;;4.70;99.90;;;;;;3947285;30;20196;-91
2023/11/25 05:08:16;;;;;;;4.33;1.37;;;4.70;99.90;;;;;;3932502;30;20178;-91
2023/11/25 05:10:20;;;;;;;2.37;0.93;;;4.60;99.90;;;;;;3932550;30;20256;-90
2023/11/25 05:12:20;;;;;;;3.70;0.83;;;4.60;99.90;;;;;;3932603;30;20297;-91
2023/11/25 05:14:21;;;;;;;7.73;0.70;;;4.60;99.90;;;;;;3932495;30;20218;-90
2023/11/25 05:16:22;;;;;;;1.10;0.30;;;4.70;99.90;;;;;;3932633;30;20178;-90
2023/11/25 05:18:23;;;;;;;2.93;0.67;;;4.80;99.90;;;;;;3947239;30;20261;-92
2023/11/25 05:20:23;;;;;;;4.87;0.83;;;4.90;99.90;;;;;;3932617;30;20183;-90
2023/11/25 05:22:28;;;;;;;6.47;0.30;;;5.00;99.90;;;;;;3932467;30;20186;-91
2023/11/25 05:24:28;;;;;;;3.60;0.43;;;5.00;99.90;;;;;;3932858;30;20691;-90
2023/11/25 05:26:29;;;;;;;3.27;0.93;;;5.00;99.90;;;;;;3947084;30;20189;-90
2023/11/25 05:28:30;;;;;;;4.00;1.03;;;5.10;99.90;;;;;;3932438;30;20675;-91
2023/11/25 05:30:30;;;;;;;4.13;0.60;;;5.30;99.90;;;;;;3946870;30;20222;-91
2023/11/25 05:32:31;;;;;;;5.40;0.60;;;5.50;99.90;;;;;;3932383;30;20243;-91
2023/11/25 05:34:32;;;;;;;0.93;0.53;;;5.70;99.90;;;;;;3932333;30;20247;-91
2023/11/25 05:36:33;;;;;;;6.80;1.13;;;5.60;99.90;;;;;;3947093;30;20180;-92
2023/11/25 05:38:34;;;;;;;7.60;1.60;;;5.60;99.90;;;;;;3932344;30;20619;-90
2023/11/25 05:40:36;;;;;;;3.00;0.40;;;5.60;99.90;;;;;;3932322;30;20186;-92
2023/11/25 05:42:41;;;;;;;3.33;0.77;;;5.70;99.90;;;;;;3932400;30;20205;-92
2023/11/25 05:44:44;;;;;;;3.20;0.57;;;5.70;99.90;;;;;;3932307;30;20313;-91
2023/11/25 05:46:44;;;;;;;7.30;1.03;;;5.60;99.90;;;;;;3932449;30;20243;-91
2023/11/25 05:48:45;;;;;;;5.73;0.30;;;5.60;99.90;;;;;;3947108;30;20197;-91
2023/11/25 05:50:46;;;;;;;4.90;0.30;;;5.90;99.90;;;;;;3932669;30;20182;-90
2023/11/25 05:52:47;;;;;;;3.10;0.77;;;6.00;99.90;;;;;;3947148;30;20177;-91
2023/11/25 05:54:47;;;;;;;4.80;0.70;;;6.10;99.90;;;;;;3932640;30;20309;-92
2023/11/25 05:56:48;;;;;;;8.07;0.60;;;6.10;99.90;;;;;;3946959;30;20197;-91
2023/11/25 05:58:51;;;;;;;2.30;1.17;;;6.00;99.90;;;;;;3932265;30;20230;-91
2023/11/25 06:00:51;;;;;;;7.13;0.83;;;6.00;99.90;;;;;;3932064;30;20251;-91
2023/11/25 06:02:52;;;;;;;1.93;0.47;;;6.00;99.90;;;;;;3946809;30;20272;-91
2023/11/25 06:04:53;;;;;;;4.93;1.37;;;6.10;99.90;;;;;;3932635;30;20273;-91
2023/11/25 06:06:54;;;;;;;5.83;0.40;;;6.10;99.90;;;;;;3935049;30;20186;-91
2023/11/25 06:08:55;;;;;;;3.80;1.10;;;6.30;99.90;;;;;;3934708;30;20253;-90
2023/11/25 06:10:56;;;;;;;8.57;1.00;;;6.30;99.90;;;;;;3949741;30;20643;-91
2023/11/25 06:12:57;;;;;;;4.57;0.53;;;6.10;99.90;;;;;;3934934;30;20178;-91
2023/11/25 06:14:58;;;;;;;2.73;0.97;;;6.20;99.90;;;;;;3949640;30;20248;-91
2023/11/25 06:17:00;;;;;;;0.80;0.60;;;6.00;99.90;;;;;;3935017;30;20603;-91
2023/11/25 06:19:01;;;;;;;1.77;0.30;;;5.90;99.90;;;;;;3934859;30;20463;-91
2023/11/25 06:21:02;;;;;;;4.70;0.73;;;5.80;99.90;;;;;;3949699;30;20212;-92
2023/11/25 06:23:03;;;;;;;0.17;0.03;;;6.00;99.90;;;;;;3934914;30;20184;-90
2023/11/25 06:25:05;;;;;;;1.37;0.33;;;6.00;99.90;;;;;;3949449;30;20252;-91
2023/11/25 06:27:06;;;;;;;10.33;1.90;;;6.00;99.90;;;;;;3934800;30;20290;-90
2023/11/25 06:29:07;;;;;;;1.03;0.90;;;6.10;99.90;;;;;;3934531;30;20206;-92
2023/11/25 06:31:15;;;;;;;4.03;0.63;;;6.30;99.90;;;;;;3934772;30;20197;-91
2023/11/25 06:33:16;;;;;;;2.03;0.53;;;6.40;99.90;;;;;;3934607;30;20247;-91
2023/11/25 06:35:17;;;;;;;0.97;0.43;;;6.40;99.90;;;;;;3934665;30;20225;-90
2023/11/25 06:37:18;;;;;;;4.90;0.47;;;6.20;99.90;;;;;;3934594;30;20228;-91
2023/11/25 06:39:22;;;;;;;2.97;0.23;;;6.10;99.90;;;;;;3934624;30;20691;-90
2023/11/25 06:41:25;;;;;;;4.13;1.03;;;6.00;99.90;;;;;;3934624;30;20213;-91
2023/11/25 06:43:25;;;;;;;0.87;0.00;;;5.90;99.90;;;;;;3934778;30;20580;-91
2023/11/25 06:45:26;;;;;;;1.17;0.30;;;5.90;99.90;;;;;;3934743;30;20189;-90
2023/11/25 06:47:27;;;;;;;2.30;0.20;;;5.80;99.90;;;;;;3949309;30;20182;-91
2023/11/25 06:49:28;;;;;;;1.10;0.13;;;5.80;99.90;;;;;;3934474;30;20244;-91
2023/11/25 06:51:29;;;;;;;4.37;0.73;;;5.90;99.90;;;;;;3949270;30;20177;-90
2023/11/25 06:53:29;;;;;;;1.50;0.63;;;6.00;99.90;;;;;;3934606;30;20185;-91
2023/11/25 06:55:32;;;;;;;0.13;0.10;;;6.00;99.90;;;;;;3934579;30;20234;-92
2023/11/25 06:57:33;;;;;;;7.83;0.33;;;6.10;99.90;;;;;;3949131;30;20193;-91
2023/11/25 06:59:34;;;;;;;3.50;0.13;;;6.10;99.90;;;;;;3934282;30;20241;-91
2023/11/25 07:01:35;;;;;;;0.10;0.07;;;5.80;99.90;;;;;;3949092;30;20205;-91
2023/11/25 07:03:36;;;;;;;3.20;0.40;;;5.70;99.90;;;;;;3934498;30;20190;-91
2023/11/25 07:05:39;;;;;;;0.13;0.10;;;5.60;99.90;;;;;;3949175;30;20226;-90
2023/11/25 07:07:41;;;;;;;2.10;0.20;;;5.80;99.90;;;;;;3934380;30;20648;-90
2023/11/25 07:09:41;;;;;;;1.13;0.60;;;6.00;99.90;;;;;;3934130;30;20203;-90
2023/11/25 07:11:43;;;;;;;3.30;0.50;;;6.20;99.90;;;;;;3948878;30;20197;-90
2023/11/25 07:13:44;;;;;;;3.87;0.63;;;6.20;99.90;;;;;;3934251;30;20186;-91
2023/11/25 07:15:45;;;;;;;1.00;0.40;;;6.30;99.90;;;;;;3948936;30;20561;-89
2023/11/25 07:17:45;;;;;;;6.50;0.50;;;6.10;99.90;;;;;;3933413;30;20559;-89
2023/11/25 07:19:46;;;;;;;1.03;0.33;;;6.20;99.90;;;;;;3934264;30;20724;-92
2023/11/25 07:21:47;;;;;;;1.20;0.53;;;6.20;99.90;;;;;;3934018;30;20171;-90
2023/11/25 07:23:48;;;;;;;4.17;0.23;;;6.20;99.90;;;;;;3934247;30;20213;-91
2023/11/25 07:25:48;;;;;;;2.97;1.00;;;6.20;99.90;;;;;;3948705;30;20178;-90
2023/11/25 07:27:50;;;;;;;0.30;0.13;;;6.00;99.90;;;;;;3934013;30;20190;-91
2023/11/25 07:29:51;;;;;;;2.00;1.00;;;6.00;99.90;;;;;;3933900;30;20243;-90
2023/11/25 07:31:51;;;;;;;3.10;0.70;;;5.80;99.90;;;;;;3933789;30;20190;-91
2023/11/25 07:33:54;;;;;;;9.40;0.73;;;5.90;99.90;;;;;;3933722;30;20190;-91
2023/11/25 07:35:55;;;;;;;2.80;0.70;;;6.10;99.90;;;;;;3934016;30;20190;-91
2023/11/25 07:37:56;;;;;;;2.43;0.67;;;6.20;99.90;;;;;;3934150;30;20178;-90
2023/11/25 07:39:57;;;;;;;4.30;0.80;;;6.30;99.90;;;;;;3948355;30;20201;-91
2023/11/25 07:42:00;;;;;;;2.40;0.37;;;6.30;99.90;;;;;;3933722;30;20644;-92
2023/11/25 07:44:01;;;;;;;3.00;0.20;;;6.60;99.90;;;;;;3933882;30;20238;-91
2023/11/25 07:46:07;;;;;;;4.17;0.40;;;6.50;99.90;;;;;;3948421;30;20648;-91
2023/11/25 07:48:11;;;;;;;0.53;0.23;;;6.40;99.90;;;;;;3933524;30;20216;-91
2023/11/25 07:50:12;;;;;;;4.10;0.83;;;6.40;99.90;;;;;;3933586;30;20556;-90
2023/11/25 07:52:15;;;;;;;3.40;0.43;;;6.40;99.90;;;;;;3933786;30;20187;-90
2023/11/25 07:54:16;;;;;;;1.03;0.77;;;6.40;99.90;;;;;;3933488;30;20216;-91
2023/11/25 07:56:17;;;;;;;5.53;0.30;;;6.40;99.90;;;;;;3933722;30;20186;-90
2023/11/25 07:58:18;;;;;;;1.67;0.50;;;6.30;99.90;;;;;;3948261;30;20548;-91
2023/11/25 08:00:25;;;;;;;0.87;0.17;;;6.20;99.90;;;;;;3933657;30;20182;-90
2023/11/25 08:02:26;;;;;;;0.37;0.00;;;6.30;99.90;;;;;;3933652;30;20174;-90
2023/11/25 08:04:27;;;;;;;1.33;0.30;;;6.40;99.90;;;;;;3948373;30;20213;-92
2023/11/25 08:06:28;;;;;;;3.30;0.37;;;6.50;99.90;;;;;;3933310;30;20186;-91
2023/11/25 08:08:28;;;;;;;2.07;0.70;;;6.60;99.90;;;;;;3933583;30;20548;-90
2023/11/25 08:10:31;;;;;;;8.20;3.13;;;6.70;99.90;;;;;;3948279;30;20181;-91
2023/11/25 08:12:31;;;;;;;3.10;1.37;;;6.80;99.90;;;;;;3933602;30;20186;-91
2023/11/25 08:14:32;;;;;;;5.07;2.37;;;6.70;99.90;;;;;;3948039;30;20221;-91
2023/11/25 08:16:33;;;;;;;2.33;1.17;;;6.60;99.90;;;;;;3933044;30;20633;-91
2023/11/25 08:18:34;;;;;;;0.60;0.30;;;6.50;99.90;;;;;;3947936;30;20541;-91
2023/11/25 08:20:34;;;;;;;5.83;0.47;;;6.60;99.90;;;;;;3933414;30;20276;-90
2023/11/25 08:22:35;;;;;;;5.07;0.57;;;6.60;99.90;;;;;;3948023;30;20182;-90
2023/11/25 08:24:36;;;;;;;0.40;0.20;;;6.60;99.90;;;;;;3933253;30;20190;-91
2023/11/25 08:26:37;;;;;;;3.93;1.90;;;6.70;99.90;;;;;;3933099;30;20189;-91
2023/11/25 08:28:38;;;;;;;0.47;0.30;;;6.80;99.90;;;;;;3932967;30;20841;-90
2023/11/25 08:30:38;;;;;;;19.37;2.17;;;6.80;99.90;;;;;;3932952;30;20174;-91
2023/11/25 08:32:40;;;;;;;4.33;0.20;;;6.80;99.90;;;;;;3947914;30;20197;-91
2023/11/25 08:34:40;;;;;;;0.20;0.10;;;7.00;99.90;;;;;;3933055;30;20218;-91
2023/11/25 08:36:44;;;;;;;0.60;0.10;;;7.00;99.90;;;;;;3933090;30;20218;-91
2023/11/25 08:38:45;;;;;;;4.57;1.13;;;7.10;99.90;;;;;;3933041;30;20572;-90
2023/11/25 08:40:47;;;;;;;3.50;0.30;;;7.10;99.90;;;;;;3933122;30;20186;-91
2023/11/25 08:42:49;;;;;;;0.97;0.30;;;7.20;99.90;;;;;;3932949;30;20178;-90
2023/11/25 08:44:50;;;;;;;4.40;0.93;;;7.30;99.90;;;;;;3932973;30;20182;-90
2023/11/25 08:46:53;;;;;;;1.60;0.20;;;7.20;99.90;;;;;;3933109;30;20544;-90
2023/11/25 08:48:55;;;;;;;1.17;0.40;;;7.20;99.90;;;;;;3933108;30;20214;-91
2023/11/25 08:50:56;;;;;;;3.10;0.50;;;7.20;99.90;;;;;;3947619;30;20189;-90
2023/11/25 08:52:56;;;;;;;0.70;0.47;;;7.00;99.90;;;;;;3933030;30;20588;-91
2023/11/25 08:54:57;;;;;;;1.00;0.40;;;7.10;99.90;;;;;;3932847;30;20229;-91
2023/11/25 08:57:00;;;;;;;1.20;0.30;;;7.30;99.90;;;;;;3932899;30;20285;-90
2023/11/25 08:59:01;;;;;;;0.23;0.20;;;7.40;99.90;;;;;;3932940;30;20208;-90
2023/11/25 09:01:02;;;;;;;1.60;0.40;;;7.40;99.90;;;;;;3947234;30;20268;-91
2023/11/25 09:03:07;;;;;;;0.20;0.13;;;7.50;99.90;;;;;;3932700;30;20186;-91
2023/11/25 09:05:08;;;;;;;2.00;0.80;;;7.60;99.90;;;;;;3932502;30;20183;-90
2023/11/25 09:07:14;;;;;;;1.43;0.30;;;7.30;99.90;;;;;;3932583;30;20189;-90
2023/11/25 09:09:16;;;;;;;1.30;0.10;;;7.20;99.90;;;;;;3932314;30;20214;-90
2023/11/25 09:11:17;;;;;;;1.20;0.63;;;7.10;99.90;;;;;;3932527;30;20194;-90
2023/11/25 09:13:18;;;;;;;0.87;0.37;;;7.00;99.90;;;;;;3947305;30;20629;-91
2023/11/25 09:15:20;;;;;;;2.63;0.30;;;7.10;99.90;;;;;;3932468;30;20236;-91
2023/11/25 09:17:20;;;;;;;2.77;0.57;;;7.00;99.90;;;;;;3932791;30;20193;-90
2023/11/25 09:19:23;;;;;;;5.37;0.30;;;7.00;99.90;;;;;;3947174;30;20205;-91
2023/11/25 09:21:24;;;;;;;10.23;0.73;;;7.20;99.90;;;;;;3932924;30;20186;-91
2023/11/25 09:23:24;;;;;;;2.30;0.37;;;7.10;99.90;;;;;;3947272;30;20715;-91
2023/11/25 09:25:25;;;;;;;0.23;0.10;;;7.10;99.90;;;;;;3932682;30;20541;-91
2023/11/25 09:27:26;;;;;;;2.33;0.13;;;7.10;99.90;;;;;;3947091;30;20203;-91
2023/11/25 09:29:27;;;;;;;0.00;0.00;;;7.00;99.90;;;;;;3932413;30;20337;-91
2023/11/25 09:31:27;;;;;;;2.20;0.73;;;7.00;99.90;;;;;;3946970;30;20220;-91
2023/11/25 09:33:28;;;;;;;3.27;0.30;;;7.10;99.90;;;;;;3932525;30;20301;-90
2023/11/25 09:35:29;;;;;;;0.53;0.23;;;7.20;99.90;;;;;;3947207;30;20221;-91
2023/11/25 09:37:30;;;;;;;0.40;0.13;;;7.20;99.90;;;;;;3932431;30;20190;-92
2023/11/25 09:39:31;;;;;;;2.17;0.40;;;7.20;99.90;;;;;;3946557;30;20245;-90
2023/11/25 09:41:32;;;;;;;2.70;0.68;;;7.50;99.90;;;;;;3932274;30;20190;-90
2023/11/25 09:43:34;;;;;;;0.10;0.10;;;7.30;99.90;;;;;;3931779;30;20193;-86
2023/11/25 09:45:35;;;;;;;2.20;0.80;;;7.20;99.90;;;;;;3931893;30;20193;-88
2023/11/25 09:47:43;;;;;;;0.20;0.20;;;7.10;99.90;;;;;;3932147;30;20182;-87
2023/11/25 09:49:43;;;;;;;1.10;0.63;;;7.30;99.90;;;;;;3932289;30;20725;-90
2023/11/25 09:51:46;;;;;;;3.07;1.03;;;7.40;99.90;;;;;;3932272;30;20272;-88
2023/11/25 09:53:50;;;;;;;1.33;0.20;;;7.30;99.90;;;;;;3932066;30;20202;-90
2023/11/25 09:56:01;;;;;;;3.17;0.90;;;7.20;99.90;;;;;;3932317;30;20272;-87
2023/11/25 09:58:06;;;;;;;1.43;0.60;;;7.00;99.90;;;;;;3932408;30;20198;-90
2023/11/25 10:00:09;;;;;;;0.10;0.10;;;6.90;99.90;;;;;;3932074;30;20203;-87
2023/11/25 10:02:10;;;;;;;3.40;0.40;;;6.70;99.90;;;;;;3932127;30;20182;-87
2023/11/25 10:04:15;;;;;;;1.50;0.30;;;6.80;99.90;;;;;;3932124;30;20221;-86
2023/11/25 10:06:18;;;;;;;1.60;0.30;;;6.90;99.90;;;;;;3932167;30;20202;-87
2023/11/25 10:08:18;;;;;;;1.43;0.30;;;6.90;99.90;;;;;;3932462;30;20179;-87
2023/11/25 10:10:23;;;;;;;1.17;0.30;;;7.00;99.90;;;;;;3946946;30;20185;-86
2023/11/25 10:12:24;;;;;;;0.80;0.10;;;6.90;99.90;;;;;;3932263;30;20186;-86
2023/11/25 10:14:29;;;;;;;7.03;0.88;;;7.00;99.90;;;;;;3931772;30;20714;-91
2023/11/25 10:16:30;;;;;;;1.60;0.97;;;7.30;99.90;;;;;;3932600;30;20263;-87
2023/11/25 10:18:31;;;;;;;0.60;0.30;;;7.20;99.90;;;;;;3931984;30;20186;-88
2023/11/25 10:20:41;;;;;;;0.27;0.20;;;7.10;99.90;;;;;;3932112;30;20178;-86
2023/11/25 10:22:47;;;;;;;0.50;0.20;;;7.00;99.90;;;;;;3946930;30;20189;-86
2023/11/25 10:24:52;;;;;;;0.33;0.23;;;6.90;99.90;;;;;;3932173;30;20178;-91
2023/11/25 10:26:55;;;;;;;0.00;0.00;;;6.90;99.90;;;;;;3932520;30;20736;-91
2023/11/25 10:28:56;;;;;;;0.47;0.20;;;6.80;99.90;;;;;;3932326;30;20634;-90
2023/11/25 10:31:05;;;;;;;0.53;0.27;;;6.60;99.90;;;;;;3932444;30;20248;-90
2023/11/25 10:33:07;;;;;;;0.10;0.10;;;6.40;99.90;;;;;;3932393;30;20186;-91
2023/11/25 10:35:09;;;;;;;0.17;0.10;;;6.20;99.90;;;;;;3932179;30;20230;-94
2023/11/25 10:37:10;;;;;;;0.50;0.40;;;6.30;99.90;;;;;;3932253;30;20637;-93
2023/11/25 10:39:11;;;;;;;0.00;0.00;;;6.30;99.90;;;;;;3932353;30;20209;-90
2023/11/25 10:41:12;;;;;;;0.73;0.60;;;6.40;99.90;;;;;;3932322;30;20201;-92